EGJB

Guernsey Airport

Saint Peter Port, Guernsey
TAF EGJB 170800Z 1709/1718 26009KT 9999 FEW025 PROB40 TEMPO 1709/1712 7000 -SHRA BKN015
Issued Valid From Valid To
Jul-17 @ 08:00 UTC
(2 hours ago)
Jul-17 @ 09:00 UTC
(49 minutes ago)
Jul-17 @ 18:00 UTC
(in 8 hours)
Jul-17 @ 09:00 to Jul-17 @ 18:00
TAF EGJB 170800Z 1709/1718 26009KT 9999 FEW025
Wind Visibility Clouds
260° at 9 knots 10,000+ meters
  • Few at 2,500' AGL
Temporary  (Probability 40%) Jul-17 @ 09:00 to Jul-17 @ 12:00
PROB40 TEMPO 1709/1712 7000 -SHRA BKN015
Visibility Clouds Conditions
7,001 meters
  • Broken at 1,500' AGL
  • Light Rain
TAF EGJB 170800Z 1709/1718 26009KT 9999 FEW025 PROB40 TEMPO 1709/1712 7000 -SHRA BKN015
Issued Jul-17 @ 08:00 UTC
(2 hours ago)
Valid From Jul-17 @ 09:00 UTC
(49 minutes ago)
Valid To Jul-17 @ 18:00 UTC
(in 8 hours)
Jul-17 @ 09:00 - Jul-17 @ 18:00
Wind Visibility
260° at 9 knots 10,000+ meters
Clouds
  • Few at 2,500' AGL
Probability 40% Temporary Jul-17 @ 09:00 - Jul-17 @ 12:00
Clouds
  • Broken at 1,500' AGL
Conditions
  • Light Rain